createdAt,value
2018-07-06T10:22:40.762Z,19.00
2018-07-06T10:25:09.093Z,17.00
2018-07-06T10:27:49.833Z,16.00
2018-07-06T10:30:34.769Z,19.60
2018-07-06T10:35:03.174Z,16.80
2018-07-06T10:37:31.745Z,18.40
2018-07-06T10:42:12.617Z,19.80
2018-07-06T10:44:42.033Z,17.80
2018-07-06T10:47:10.866Z,16.40
2018-07-06T10:49:39.322Z,17.20
2018-07-06T10:52:08.228Z,14.40
2018-07-06T10:54:37.377Z,15.80
2018-07-06T10:57:05.969Z,16.00
2018-07-06T10:59:35.434Z,15.60
2018-07-06T11:02:03.832Z,15.00
2018-07-06T11:04:32.316Z,18.40
2018-07-06T11:07:00.775Z,11.80
2018-07-06T11:09:29.066Z,15.80
2018-07-06T11:11:57.521Z,15.80
2018-07-06T11:14:26.095Z,17.20
2018-07-06T11:16:54.402Z,16.00
2018-07-06T11:19:22.791Z,16.40
2018-07-06T11:21:51.187Z,17.00
2018-07-06T11:24:19.534Z,17.00
2018-07-06T11:26:47.838Z,16.60
2018-07-06T11:29:16.201Z,9.40
2018-07-06T11:31:44.561Z,17.60
2018-07-06T11:34:12.912Z,17.60
2018-07-06T11:36:41.222Z,16.00
2018-07-06T11:39:09.566Z,14.40
2018-07-06T11:41:39.547Z,16.60
2018-07-06T11:44:08.039Z,16.80
2018-07-06T11:46:37.753Z,20.20
2018-07-06T11:50:36.989Z,14.00
2018-07-06T11:53:05.313Z,17.20
2018-07-06T11:55:33.715Z,17.60
2018-07-06T11:58:01.987Z,18.80
2018-07-06T12:00:30.221Z,14.20
2018-07-06T12:03:02.022Z,14.60
2018-07-06T12:05:29.645Z,12.80
2018-07-06T12:07:57.074Z,14.80
2018-07-06T12:10:24.704Z,15.60
2018-07-06T12:12:52.226Z,14.60
2018-07-06T12:15:19.673Z,17.00
2018-07-06T12:17:47.123Z,17.40
2018-07-06T12:20:54.613Z,16.00
2018-07-06T12:23:22.050Z,16.00
2018-07-06T12:25:49.474Z,17.40
2018-07-06T12:28:17.017Z,14.20
2018-07-06T12:30:44.486Z,16.60
2018-07-06T12:33:11.926Z,12.60
2018-07-06T12:35:39.422Z,15.20
2018-07-06T12:38:06.843Z,14.00
2018-07-06T12:40:34.346Z,11.80
2018-07-06T12:43:01.796Z,11.40
2018-07-06T12:45:29.209Z,6.60
2018-07-06T12:47:57.042Z,15.60
2018-07-06T12:50:24.529Z,14.20
2018-07-06T12:52:52.014Z,13.20
2018-07-06T12:55:19.450Z,14.00
2018-07-06T12:57:46.942Z,15.00
2018-07-06T13:00:14.403Z,14.40
2018-07-06T13:02:41.832Z,11.80
2018-07-06T13:05:09.310Z,13.60
2018-07-06T13:07:36.747Z,14.40
2018-07-06T13:10:04.170Z,12.60
2018-07-06T13:12:31.557Z,12.60
2018-07-06T13:14:58.994Z,11.20
2018-07-06T13:17:26.525Z,12.20
2018-07-06T13:19:53.992Z,13.00
2018-07-06T13:22:21.398Z,7.00
2018-07-06T13:24:48.832Z,11.00
2018-07-06T13:27:16.303Z,11.40
2018-07-06T13:29:43.759Z,12.20
2018-07-06T13:32:11.222Z,8.00
2018-07-06T13:34:38.645Z,11.00
2018-07-06T13:37:06.134Z,11.80
2018-07-06T13:39:33.598Z,10.20
2018-07-06T13:42:01.049Z,11.20
2018-07-06T13:44:28.495Z,11.80
2018-07-06T13:46:56.074Z,11.40
2018-07-06T13:49:23.422Z,9.80
2018-07-06T13:51:51.351Z,10.80
2018-07-06T13:54:18.841Z,10.00
2018-07-06T13:56:46.578Z,7.60
2018-07-06T13:59:14.129Z,10.00
2018-07-06T14:01:41.514Z,8.20
2018-07-06T14:04:09.729Z,10.00
2018-07-06T14:06:37.226Z,11.00
2018-07-06T14:09:05.179Z,9.60
2018-07-06T14:11:33.067Z,9.80
2018-07-06T14:14:01.060Z,10.00
2018-07-06T14:16:28.501Z,9.40
2018-07-06T14:18:55.861Z,10.00
2018-07-06T14:21:23.310Z,10.40
2018-07-06T14:23:50.791Z,9.00
2018-07-06T14:26:18.223Z,9.60
2018-07-06T14:28:45.720Z,10.00
